sensor_id;sensor_type;location;lat;lon;timestamp;pressure;altitude;pressure_sealevel;temperature;humidity
63447;BME280;49577;49.872;6.190;2023-02-25T00:01:02;98596.94;;;4.32;71.58
63447;BME280;49577;49.872;6.190;2023-02-25T00:03:27;98595.43;;;4.28;71.80
63447;BME280;49577;49.872;6.190;2023-02-25T00:05:52;98595.02;;;4.22;72.12
63447;BME280;49577;49.872;6.190;2023-02-25T00:08:17;98594.11;;;4.17;72.37
63447;BME280;49577;49.872;6.190;2023-02-25T00:10:43;98598.45;;;4.13;72.42
63447;BME280;49577;49.872;6.190;2023-02-25T00:13:08;98598.00;;;4.09;72.59
63447;BME280;49577;49.872;6.190;2023-02-25T00:15:33;98601.35;;;4.04;72.60
63447;BME280;49577;49.872;6.190;2023-02-25T00:17:58;98595.66;;;4.00;72.62
63447;BME280;49577;49.872;6.190;2023-02-25T00:20:24;98596.95;;;3.96;72.72
63447;BME280;49577;49.872;6.190;2023-02-25T00:22:50;98599.70;;;3.93;72.96
63447;BME280;49577;49.872;6.190;2023-02-25T00:25:16;98604.39;;;3.92;73.10
63447;BME280;49577;49.872;6.190;2023-02-25T00:27:41;98617.73;;;3.91;73.16
63447;BME280;49577;49.872;6.190;2023-02-25T00:30:07;98618.86;;;3.93;73.25
63447;BME280;49577;49.872;6.190;2023-02-25T00:32:34;98612.80;;;3.93;73.27
63447;BME280;49577;49.872;6.190;2023-02-25T00:35:00;98610.99;;;3.91;73.37
63447;BME280;49577;49.872;6.190;2023-02-25T00:37:25;98609.36;;;3.90;73.19
63447;BME280;49577;49.872;6.190;2023-02-25T00:39:51;98608.12;;;3.87;73.37
63447;BME280;49577;49.872;6.190;2023-02-25T00:42:17;98597.81;;;3.83;73.26
63447;BME280;49577;49.872;6.190;2023-02-25T00:44:46;98592.05;;;3.77;73.19
63447;BME280;49577;49.872;6.190;2023-02-25T00:47:11;98603.39;;;3.74;73.20
63447;BME280;49577;49.872;6.190;2023-02-25T00:49:38;98605.95;;;3.71;73.55
63447;BME280;49577;49.872;6.190;2023-02-25T00:52:03;98604.96;;;3.70;73.78
63447;BME280;49577;49.872;6.190;2023-02-25T00:54:28;98610.36;;;3.73;73.86
63447;BME280;49577;49.872;6.190;2023-02-25T00:56:53;98607.77;;;3.73;73.43
63447;BME280;49577;49.872;6.190;2023-02-25T00:59:19;98609.95;;;3.74;73.40
63447;BME280;49577;49.872;6.190;2023-02-25T01:01:44;98605.60;;;3.75;73.22
63447;BME280;49577;49.872;6.190;2023-02-25T01:04:10;98606.86;;;3.74;73.04
63447;BME280;49577;49.872;6.190;2023-02-25T01:06:35;98613.48;;;3.73;73.08
63447;BME280;49577;49.872;6.190;2023-02-25T01:09:02;98615.91;;;3.73;72.91
63447;BME280;49577;49.872;6.190;2023-02-25T01:11:28;98617.59;;;3.70;72.92
63447;BME280;49577;49.872;6.190;2023-02-25T01:13:55;98626.45;;;3.69;73.12
63447;BME280;49577;49.872;6.190;2023-02-25T01:16:21;98626.16;;;3.68;73.12
63447;BME280;49577;49.872;6.190;2023-02-25T01:18:46;98626.79;;;3.66;73.19
63447;BME280;49577;49.872;6.190;2023-02-25T01:21:19;98631.22;;;3.64;73.52
63447;BME280;49577;49.872;6.190;2023-02-25T01:23:44;98627.24;;;3.60;73.95
63447;BME280;49577;49.872;6.190;2023-02-25T01:26:10;98627.22;;;3.57;74.14
63447;BME280;49577;49.872;6.190;2023-02-25T01:28:35;98623.59;;;3.54;73.90
63447;BME280;49577;49.872;6.190;2023-02-25T01:31:01;98620.48;;;3.51;73.59
63447;BME280;49577;49.872;6.190;2023-02-25T01:33:26;98617.83;;;3.48;73.35
63447;BME280;49577;49.872;6.190;2023-02-25T01:35:51;98623.16;;;3.49;73.44
63447;BME280;49577;49.872;6.190;2023-02-25T01:38:16;98620.79;;;3.51;73.17
63447;BME280;49577;49.872;6.190;2023-02-25T01:40:42;98618.28;;;3.53;73.10
63447;BME280;49577;49.872;6.190;2023-02-25T01:43:11;98614.88;;;3.55;72.94
63447;BME280;49577;49.872;6.190;2023-02-25T01:45:37;98620.77;;;3.59;73.20
63447;BME280;49577;49.872;6.190;2023-02-25T01:48:13;98622.33;;;3.62;73.21
63447;BME280;49577;49.872;6.190;2023-02-25T01:50:42;98618.05;;;3.65;72.96
63447;BME280;49577;49.872;6.190;2023-02-25T01:53:09;98617.04;;;3.68;73.14
63447;BME280;49577;49.872;6.190;2023-02-25T01:55:35;98613.08;;;3.71;73.29
63447;BME280;49577;49.872;6.190;2023-02-25T01:58:00;98611.43;;;3.72;73.56
63447;BME280;49577;49.872;6.190;2023-02-25T02:00:26;98610.72;;;3.73;73.74
63447;BME280;49577;49.872;6.190;2023-02-25T02:02:52;98610.67;;;3.73;73.68
63447;BME280;49577;49.872;6.190;2023-02-25T02:05:19;98610.51;;;3.73;73.58
63447;BME280;49577;49.872;6.190;2023-02-25T02:07:45;98612.54;;;3.71;73.18
63447;BME280;49577;49.872;6.190;2023-02-25T02:10:10;98608.64;;;3.70;72.95
63447;BME280;49577;49.872;6.190;2023-02-25T02:12:37;98612.65;;;3.69;72.82
63447;BME280;49577;49.872;6.190;2023-02-25T02:15:05;98612.54;;;3.68;72.75
63447;BME280;49577;49.872;6.190;2023-02-25T02:17:34;98616.23;;;3.67;72.87
63447;BME280;49577;49.872;6.190;2023-02-25T02:20:24;98620.94;;;3.65;72.94
63447;BME280;49577;49.872;6.190;2023-02-25T02:35:48;98623.65;;;3.53;72.96
63447;BME280;49577;49.872;6.190;2023-02-25T02:38:21;98626.02;;;3.54;73.18
63447;BME280;49577;49.872;6.190;2023-02-25T02:48:43;98631.98;;;3.55;73.26
63447;BME280;49577;49.872;6.190;2023-02-25T02:51:14;98633.27;;;3.54;72.98
63447;BME280;49577;49.872;6.190;2023-02-25T02:53:43;98630.73;;;3.53;72.79
63447;BME280;49577;49.872;6.190;2023-02-25T02:56:11;98628.66;;;3.53;73.14
63447;BME280;49577;49.872;6.190;2023-02-25T02:58:38;98625.41;;;3.52;73.29
63447;BME280;49577;49.872;6.190;2023-02-25T03:01:49;98630.73;;;3.52;73.24
63447;BME280;49577;49.872;6.190;2023-02-25T03:03:54;98627.35;;;3.51;72.93
63447;BME280;49577;49.872;6.190;2023-02-25T03:06:24;98627.94;;;3.50;72.59
63447;BME280;49577;49.872;6.190;2023-02-25T03:08:55;98626.95;;;3.49;72.39
63447;BME280;49577;49.872;6.190;2023-02-25T03:11:21;98622.25;;;3.50;72.50
63447;BME280;49577;49.872;6.190;2023-02-25T03:13:46;98629.14;;;3.50;72.36
63447;BME280;49577;49.872;6.190;2023-02-25T03:16:13;98637.03;;;3.51;72.60
63447;BME280;49577;49.872;6.190;2023-02-25T03:18:52;98632.27;;;3.50;72.33
63447;BME280;49577;49.872;6.190;2023-02-25T03:21:20;98635.91;;;3.49;72.36
63447;BME280;49577;49.872;6.190;2023-02-25T03:23:47;98638.25;;;3.51;72.50
63447;BME280;49577;49.872;6.190;2023-02-25T03:26:28;98636.30;;;3.52;72.43
63447;BME280;49577;49.872;6.190;2023-02-25T03:28:54;98634.35;;;3.53;72.64
63447;BME280;49577;49.872;6.190;2023-02-25T03:34:07;98637.70;;;3.55;72.24
63447;BME280;49577;49.872;6.190;2023-02-25T03:36:38;98638.08;;;3.54;72.27
63447;BME280;49577;49.872;6.190;2023-02-25T03:39:16;98638.55;;;3.55;72.07
63447;BME280;49577;49.872;6.190;2023-02-25T03:41:45;98642.60;;;3.57;72.20
63447;BME280;49577;49.872;6.190;2023-02-25T03:44:12;98639.98;;;3.58;72.27
63447;BME280;49577;49.872;6.190;2023-02-25T03:46:39;98639.35;;;3.60;72.13
63447;BME280;49577;49.872;6.190;2023-02-25T03:49:06;98637.16;;;3.59;72.09
63447;BME280;49577;49.872;6.190;2023-02-25T03:51:35;98639.42;;;3.59;72.11
63447;BME280;49577;49.872;6.190;2023-02-25T03:54:03;98644.59;;;3.59;72.02
63447;BME280;49577;49.872;6.190;2023-02-25T03:56:28;98642.01;;;3.59;71.76
63447;BME280;49577;49.872;6.190;2023-02-25T03:58:54;98646.80;;;3.60;71.93
63447;BME280;49577;49.872;6.190;2023-02-25T04:01:24;98651.78;;;3.60;71.56
63447;BME280;49577;49.872;6.190;2023-02-25T04:03:50;98650.24;;;3.60;71.40
63447;BME280;49577;49.872;6.190;2023-02-25T04:06:19;98653.95;;;3.58;71.39
63447;BME280;49577;49.872;6.190;2023-02-25T04:08:45;98659.16;;;3.58;71.42
63447;BME280;49577;49.872;6.190;2023-02-25T04:11:10;98663.14;;;3.57;71.66
63447;BME280;49577;49.872;6.190;2023-02-25T04:13:35;98666.95;;;3.57;71.83
63447;BME280;49577;49.872;6.190;2023-02-25T04:16:00;98663.58;;;3.55;71.71
63447;BME280;49577;49.872;6.190;2023-02-25T04:18:25;98654.21;;;3.53;71.59
63447;BME280;49577;49.872;6.190;2023-02-25T04:20:51;98654.48;;;3.51;71.39
63447;BME280;49577;49.872;6.190;2023-02-25T04:23:17;98655.49;;;3.51;71.30
63447;BME280;49577;49.872;6.190;2023-02-25T04:25:42;98651.10;;;3.49;70.93
63447;BME280;49577;49.872;6.190;2023-02-25T04:28:08;98656.89;;;3.47;70.63
63447;BME280;49577;49.872;6.190;2023-02-25T04:30:33;98654.95;;;3.45;70.68
63447;BME280;49577;49.872;6.190;2023-02-25T04:32:59;98658.61;;;3.44;70.55
63447;BME280;49577;49.872;6.190;2023-02-25T04:35:24;98661.66;;;3.45;70.59
63447;BME280;49577;49.872;6.190;2023-02-25T04:37:49;98662.24;;;3.44;70.58
63447;BME280;49577;49.872;6.190;2023-02-25T04:40:16;98662.58;;;3.41;70.17
63447;BME280;49577;49.872;6.190;2023-02-25T04:42:41;98664.09;;;3.38;70.07
63447;BME280;49577;49.872;6.190;2023-02-25T04:45:07;98664.48;;;3.37;70.16
63447;BME280;49577;49.872;6.190;2023-02-25T04:47:33;98663.27;;;3.37;70.39
63447;BME280;49577;49.872;6.190;2023-02-25T04:49:58;98659.44;;;3.38;70.44
63447;BME280;49577;49.872;6.190;2023-02-25T04:52:24;98660.94;;;3.39;70.14
63447;BME280;49577;49.872;6.190;2023-02-25T04:54:49;98662.50;;;3.39;70.22
63447;BME280;49577;49.872;6.190;2023-02-25T04:57:15;98657.48;;;3.39;70.17
63447;BME280;49577;49.872;6.190;2023-02-25T04:59:40;98655.22;;;3.39;70.09
63447;BME280;49577;49.872;6.190;2023-02-25T05:02:06;98662.98;;;3.40;69.98
63447;BME280;49577;49.872;6.190;2023-02-25T05:04:31;98663.74;;;3.42;70.08
63447;BME280;49577;49.872;6.190;2023-02-25T05:06:57;98666.70;;;3.45;70.12
63447;BME280;49577;49.872;6.190;2023-02-25T05:09:22;98668.38;;;3.45;70.14
63447;BME280;49577;49.872;6.190;2023-02-25T05:11:47;98665.41;;;3.46;69.96
63447;BME280;49577;49.872;6.190;2023-02-25T05:14:13;98663.95;;;3.48;70.00
63447;BME280;49577;49.872;6.190;2023-02-25T05:16:38;98661.42;;;3.47;69.68
63447;BME280;49577;49.872;6.190;2023-02-25T05:19:03;98661.48;;;3.45;69.73
63447;BME280;49577;49.872;6.190;2023-02-25T05:21:28;98665.85;;;3.45;69.85
63447;BME280;49577;49.872;6.190;2023-02-25T05:23:54;98669.17;;;3.44;69.85
63447;BME280;49577;49.872;6.190;2023-02-25T05:26:21;98666.75;;;3.44;69.71
63447;BME280;49577;49.872;6.190;2023-02-25T05:28:47;98662.71;;;3.41;69.51
63447;BME280;49577;49.872;6.190;2023-02-25T05:31:12;98667.04;;;3.41;69.49
63447;BME280;49577;49.872;6.190;2023-02-25T05:33:38;98671.68;;;3.42;69.66
63447;BME280;49577;49.872;6.190;2023-02-25T05:36:04;98675.29;;;3.42;69.46
63447;BME280;49577;49.872;6.190;2023-02-25T05:38:29;98677.63;;;3.44;69.60
63447;BME280;49577;49.872;6.190;2023-02-25T05:40:55;98680.48;;;3.45;69.91
63447;BME280;49577;49.872;6.190;2023-02-25T05:43:20;98685.05;;;3.47;69.95
63447;BME280;49577;49.872;6.190;2023-02-25T05:45:55;98678.56;;;3.46;69.63
63447;BME280;49577;49.872;6.190;2023-02-25T05:48:20;98678.80;;;3.45;69.93
63447;BME280;49577;49.872;6.190;2023-02-25T05:50:45;98677.34;;;3.46;69.97
63447;BME280;49577;49.872;6.190;2023-02-25T05:53:11;98677.96;;;3.47;70.07
63447;BME280;49577;49.872;6.190;2023-02-25T05:55:39;98681.52;;;3.49;69.97
63447;BME280;49577;49.872;6.190;2023-02-25T05:58:05;98684.54;;;3.51;70.18
63447;BME280;49577;49.872;6.190;2023-02-25T06:00:30;98682.38;;;3.52;70.39
63447;BME280;49577;49.872;6.190;2023-02-25T06:02:56;98683.94;;;3.52;70.57
63447;BME280;49577;49.872;6.190;2023-02-25T06:05:21;98683.52;;;3.50;70.84
63447;BME280;49577;49.872;6.190;2023-02-25T06:07:46;98686.23;;;3.48;71.19
63447;BME280;49577;49.872;6.190;2023-02-25T06:10:12;98682.15;;;3.46;71.19
63447;BME280;49577;49.872;6.190;2023-02-25T06:12:37;98683.95;;;3.45;70.89
63447;BME280;49577;49.872;6.190;2023-02-25T06:15:02;98683.27;;;3.45;70.95
63447;BME280;49577;49.872;6.190;2023-02-25T06:17:28;98687.11;;;3.44;71.11
63447;BME280;49577;49.872;6.190;2023-02-25T06:19:53;98688.91;;;3.42;71.11
63447;BME280;49577;49.872;6.190;2023-02-25T06:22:18;98693.09;;;3.42;71.33
63447;BME280;49577;49.872;6.190;2023-02-25T06:24:44;98691.57;;;3.41;71.34
63447;BME280;49577;49.872;6.190;2023-02-25T06:27:09;98694.16;;;3.41;71.28
63447;BME280;49577;49.872;6.190;2023-02-25T06:29:35;98699.05;;;3.40;71.34
63447;BME280;49577;49.872;6.190;2023-02-25T06:32:00;98700.23;;;3.40;71.18
63447;BME280;49577;49.872;6.190;2023-02-25T06:34:26;98696.30;;;3.40;70.96
63447;BME280;49577;49.872;6.190;2023-02-25T06:36:56;98701.38;;;3.38;70.64
63447;BME280;49577;49.872;6.190;2023-02-25T06:39:22;98699.83;;;3.38;70.70
63447;BME280;49577;49.872;6.190;2023-02-25T06:41:47;98703.64;;;3.38;70.59
63447;BME280;49577;49.872;6.190;2023-02-25T06:44:13;98710.20;;;3.38;70.67
63447;BME280;49577;49.872;6.190;2023-02-25T06:46:38;98706.48;;;3.40;70.58
63447;BME280;49577;49.872;6.190;2023-02-25T06:49:03;98710.92;;;3.41;70.33
63447;BME280;49577;49.872;6.190;2023-02-25T06:51:28;98714.70;;;3.41;70.22
63447;BME280;49577;49.872;6.190;2023-02-25T06:53:54;98716.42;;;3.45;70.42
63447;BME280;49577;49.872;6.190;2023-02-25T06:56:19;98717.68;;;3.47;70.52
63447;BME280;49577;49.872;6.190;2023-02-25T06:58:45;98722.05;;;3.50;70.30
63447;BME280;49577;49.872;6.190;2023-02-25T07:01:12;98724.33;;;3.53;70.10
63447;BME280;49577;49.872;6.190;2023-02-25T07:03:38;98727.73;;;3.54;69.84
63447;BME280;49577;49.872;6.190;2023-02-25T07:06:03;98731.69;;;3.54;69.85
63447;BME280;49577;49.872;6.190;2023-02-25T07:08:29;98733.34;;;3.55;69.56
63447;BME280;49577;49.872;6.190;2023-02-25T07:10:55;98734.59;;;3.58;69.77
63447;BME280;49577;49.872;6.190;2023-02-25T07:13:20;98738.05;;;3.62;69.88
63447;BME280;49577;49.872;6.190;2023-02-25T07:15:45;98735.37;;;3.63;69.38
63447;BME280;49577;49.872;6.190;2023-02-25T07:18:11;98736.48;;;3.65;69.34
63447;BME280;49577;49.872;6.190;2023-02-25T07:20:36;98748.70;;;3.70;69.11
63447;BME280;49577;49.872;6.190;2023-02-25T07:23:03;98756.61;;;3.74;69.31
63447;BME280;49577;49.872;6.190;2023-02-25T07:25:28;98760.56;;;3.78;69.27
63447;BME280;49577;49.872;6.190;2023-02-25T07:27:54;98759.98;;;3.83;69.03
63447;BME280;49577;49.872;6.190;2023-02-25T07:30:19;98764.23;;;3.85;68.52
63447;BME280;49577;49.872;6.190;2023-02-25T07:32:44;98765.95;;;3.85;68.28
63447;BME280;49577;49.872;6.190;2023-02-25T07:35:10;98765.31;;;3.87;68.56
63447;BME280;49577;49.872;6.190;2023-02-25T07:37:35;98762.66;;;3.89;68.43
63447;BME280;49577;49.872;6.190;2023-02-25T07:40:00;98761.25;;;3.93;68.58
63447;BME280;49577;49.872;6.190;2023-02-25T07:42:26;98764.19;;;3.96;68.75
63447;BME280;49577;49.872;6.190;2023-02-25T07:44:51;98766.84;;;3.99;68.65
63447;BME280;49577;49.872;6.190;2023-02-25T07:47:16;98766.21;;;3.97;69.20
63447;BME280;49577;49.872;6.190;2023-02-25T07:49:41;98764.52;;;3.93;69.54
63447;BME280;49577;49.872;6.190;2023-02-25T07:52:07;98765.77;;;3.89;69.76
63447;BME280;49577;49.872;6.190;2023-02-25T07:54:32;98772.04;;;3.88;70.13
63447;BME280;49577;49.872;6.190;2023-02-25T07:56:57;98776.10;;;3.89;70.16
63447;BME280;49577;49.872;6.190;2023-02-25T07:59:22;98781.14;;;3.89;70.32
63447;BME280;49577;49.872;6.190;2023-02-25T08:01:47;98785.98;;;3.92;70.51
63447;BME280;49577;49.872;6.190;2023-02-25T08:04:13;98784.15;;;3.94;70.84
63447;BME280;49577;49.872;6.190;2023-02-25T08:06:38;98783.14;;;4.01;71.21
63447;BME280;49577;49.872;6.190;2023-02-25T08:09:08;98784.43;;;4.06;70.76
63447;BME280;49577;49.872;6.190;2023-02-25T08:11:35;98785.27;;;4.10;70.78
63447;BME280;49577;49.872;6.190;2023-02-25T08:14:01;98783.80;;;4.12;70.45
63447;BME280;49577;49.872;6.190;2023-02-25T08:16:26;98786.11;;;4.14;70.37
63447;BME280;49577;49.872;6.190;2023-02-25T08:18:51;98785.44;;;4.21;70.55
63447;BME280;49577;49.872;6.190;2023-02-25T08:21:17;98786.45;;;4.28;70.67
63447;BME280;49577;49.872;6.190;2023-02-25T08:23:43;98788.58;;;4.34;70.43
63447;BME280;49577;49.872;6.190;2023-02-25T08:26:08;98789.10;;;4.37;70.39
63447;BME280;49577;49.872;6.190;2023-02-25T08:28:34;98788.56;;;4.41;70.46
63447;BME280;49577;49.872;6.190;2023-02-25T08:30:59;98784.64;;;4.44;70.44
63447;BME280;49577;49.872;6.190;2023-02-25T08:33:25;98783.39;;;4.44;70.40
63447;BME280;49577;49.872;6.190;2023-02-25T08:35:50;98780.35;;;4.46;70.72
63447;BME280;49577;49.872;6.190;2023-02-25T08:38:16;98777.15;;;4.51;70.77
63447;BME280;49577;49.872;6.190;2023-02-25T08:40:41;98774.49;;;4.56;70.72
63447;BME280;49577;49.872;6.190;2023-02-25T08:43:07;98769.80;;;4.63;70.51
63447;BME280;49577;49.872;6.190;2023-02-25T08:45:32;98768.89;;;4.67;70.27
63447;BME280;49577;49.872;6.190;2023-02-25T08:47:58;98766.63;;;4.81;70.11
63447;BME280;49577;49.872;6.190;2023-02-25T08:50:23;98769.55;;;5.04;70.05
63447;BME280;49577;49.872;6.190;2023-02-25T08:52:49;98767.54;;;5.28;69.39
63447;BME280;49577;49.872;6.190;2023-02-25T08:55:14;98764.50;;;5.52;68.97
63447;BME280;49577;49.872;6.190;2023-02-25T08:57:40;98760.88;;;5.73;68.09
63447;BME280;49577;49.872;6.190;2023-02-25T09:00:06;98767.52;;;5.88;67.35
63447;BME280;49577;49.872;6.190;2023-02-25T09:02:33;98769.89;;;5.86;66.50
63447;BME280;49577;49.872;6.190;2023-02-25T09:04:58;98768.80;;;5.81;66.55
63447;BME280;49577;49.872;6.190;2023-02-25T09:07:24;98765.85;;;5.83;66.75
63447;BME280;49577;49.872;6.190;2023-02-25T09:09:49;98771.27;;;5.89;66.74
63447;BME280;49577;49.872;6.190;2023-02-25T09:12:14;98774.45;;;5.92;66.22
63447;BME280;49577;49.872;6.190;2023-02-25T09:14:39;98777.95;;;5.94;66.41
63447;BME280;49577;49.872;6.190;2023-02-25T09:17:05;98779.28;;;5.98;66.09
63447;BME280;49577;49.872;6.190;2023-02-25T09:19:30;98776.68;;;6.01;66.34
63447;BME280;49577;49.872;6.190;2023-02-25T09:21:56;98779.77;;;6.08;66.51
63447;BME280;49577;49.872;6.190;2023-02-25T09:24:21;98779.26;;;6.10;65.84
63447;BME280;49577;49.872;6.190;2023-02-25T09:26:46;98780.24;;;6.08;65.56
63447;BME280;49577;49.872;6.190;2023-02-25T09:29:11;98783.58;;;6.05;65.25
63447;BME280;49577;49.872;6.190;2023-02-25T09:31:37;98783.39;;;5.93;64.44
63447;BME280;49577;49.872;6.190;2023-02-25T09:34:04;98787.25;;;5.76;64.21
63447;BME280;49577;49.872;6.190;2023-02-25T09:36:30;98789.23;;;5.62;64.44
63447;BME280;49577;49.872;6.190;2023-02-25T09:38:56;98789.94;;;5.53;64.46
63447;BME280;49577;49.872;6.190;2023-02-25T09:43:47;98793.92;;;5.40;65.32
63447;BME280;49577;49.872;6.190;2023-02-25T09:46:14;98788.08;;;5.43;65.82
63447;BME280;49577;49.872;6.190;2023-02-25T09:51:20;98786.26;;;5.56;66.51
63447;BME280;49577;49.872;6.190;2023-02-25T09:53:53;98787.29;;;5.57;65.78
63447;BME280;49577;49.872;6.190;2023-02-25T09:56:20;98785.31;;;5.58;66.11
63447;BME280;49577;49.872;6.190;2023-02-25T09:58:51;98786.85;;;5.55;65.30
63447;BME280;49577;49.872;6.190;2023-02-25T10:06:45;98793.78;;;5.49;64.95
63447;BME280;49577;49.872;6.190;2023-02-25T10:11:45;98788.40;;;5.46;64.56
63447;BME280;49577;49.872;6.190;2023-02-25T10:14:16;98786.45;;;5.47;64.24
63447;BME280;49577;49.872;6.190;2023-02-25T10:24:31;98776.77;;;5.59;64.09
63447;BME280;49577;49.872;6.190;2023-02-25T10:27:01;98775.33;;;5.66;64.15
63447;BME280;49577;49.872;6.190;2023-02-25T10:29:33;98776.52;;;5.76;63.96
63447;BME280;49577;49.872;6.190;2023-02-25T10:32:00;98781.78;;;5.87;63.29
63447;BME280;49577;49.872;6.190;2023-02-25T10:34:36;98784.97;;;5.92;62.63
63447;BME280;49577;49.872;6.190;2023-02-25T10:37:03;98788.48;;;5.95;62.76
63447;BME280;49577;49.872;6.190;2023-02-25T10:39:34;98792.12;;;6.01;62.75
63447;BME280;49577;49.872;6.190;2023-02-25T10:42:00;98800.20;;;6.08;62.69
63447;BME280;49577;49.872;6.190;2023-02-25T10:44:25;98805.08;;;6.17;62.94
63447;BME280;49577;49.872;6.190;2023-02-25T10:46:55;98806.36;;;6.19;62.43
63447;BME280;49577;49.872;6.190;2023-02-25T10:49:23;98812.88;;;6.17;62.28
63447;BME280;49577;49.872;6.190;2023-02-25T10:54:33;98809.95;;;6.07;61.17
63447;BME280;49577;49.872;6.190;2023-02-25T10:57:00;98805.40;;;6.02;61.34
63447;BME280;49577;49.872;6.190;2023-02-25T11:02:02;98808.54;;;6.14;61.57
63447;BME280;49577;49.872;6.190;2023-02-25T11:04:34;98801.95;;;6.23;60.95
63447;BME280;49577;49.872;6.190;2023-02-25T11:07:00;98798.44;;;6.33;60.30
63447;BME280;49577;49.872;6.190;2023-02-25T11:09:30;98788.37;;;6.50;59.74
63447;BME280;49577;49.872;6.190;2023-02-25T11:11:59;98788.09;;;6.70;59.32
63447;BME280;49577;49.872;6.190;2023-02-25T11:14:31;98795.23;;;6.90;58.94
63447;BME280;49577;49.872;6.190;2023-02-25T11:17:00;98794.92;;;7.01;59.04
63447;BME280;49577;49.872;6.190;2023-02-25T11:19:28;98789.33;;;7.04;58.28
63447;BME280;49577;49.872;6.190;2023-02-25T11:21:53;98792.20;;;6.99;57.71
63447;BME280;49577;49.872;6.190;2023-02-25T11:24:29;98787.08;;;6.93;58.03
63447;BME280;49577;49.872;6.190;2023-02-25T11:26:56;98784.52;;;6.92;58.20
63447;BME280;49577;49.872;6.190;2023-02-25T11:29:32;98783.45;;;6.95;58.45
63447;BME280;49577;49.872;6.190;2023-02-25T11:32:00;98781.42;;;6.97;58.10
63447;BME280;49577;49.872;6.190;2023-02-25T11:34:28;98776.66;;;6.98;57.84
63447;BME280;49577;49.872;6.190;2023-02-25T11:39:40;98775.30;;;7.17;57.86
63447;BME280;49577;49.872;6.190;2023-02-25T11:42:25;98775.98;;;7.23;57.34
63447;BME280;49577;49.872;6.190;2023-02-25T11:45:01;98774.52;;;7.22;57.02
63447;BME280;49577;49.872;6.190;2023-02-25T11:47:28;98775.92;;;7.07;56.53
63447;BME280;49577;49.872;6.190;2023-02-25T11:52:24;98771.00;;;6.85;56.37
63447;BME280;49577;49.872;6.190;2023-02-25T11:55:12;98771.13;;;6.80;56.37
63447;BME280;49577;49.872;6.190;2023-02-25T11:57:46;98768.33;;;6.84;56.20
63447;BME280;49577;49.872;6.190;2023-02-25T12:02:56;98764.18;;;7.01;54.95
63447;BME280;49577;49.872;6.190;2023-02-25T12:05:44;98761.91;;;7.06;54.98
63447;BME280;49577;49.872;6.190;2023-02-25T12:24:24;98754.48;;;7.45;53.49
63447;BME280;49577;49.872;6.190;2023-02-25T12:40:00;98744.80;;;8.78;51.81
63447;BME280;49577;49.872;6.190;2023-02-25T12:52:58;98737.96;;;9.34;49.37
63447;BME280;49577;49.872;6.190;2023-02-25T12:58:39;98740.30;;;8.63;50.53
63447;BME280;49577;49.872;6.190;2023-02-25T13:27:01;98731.67;;;7.89;53.62
63447;BME280;49577;49.872;6.190;2023-02-25T13:44:50;98702.06;;;9.14;51.00
63447;BME280;49577;49.872;6.190;2023-02-25T13:54:10;98703.02;;;9.58;49.70
63447;BME280;49577;49.872;6.190;2023-02-25T13:56:54;98704.05;;;9.64;48.47
63447;BME280;49577;49.872;6.190;2023-02-25T14:05:12;98711.09;;;9.81;46.15
63447;BME280;49577;49.872;6.190;2023-02-25T14:07:59;98707.61;;;9.84;46.31
63447;BME280;49577;49.872;6.190;2023-02-25T14:13:13;98710.75;;;9.34;45.58
63447;BME280;49577;49.872;6.190;2023-02-25T14:19:07;98710.98;;;8.84;46.60
63447;BME280;49577;49.872;6.190;2023-02-25T14:21:52;98711.48;;;8.51;47.16
63447;BME280;49577;49.872;6.190;2023-02-25T14:24:42;98716.34;;;8.33;47.96
63447;BME280;49577;49.872;6.190;2023-02-25T14:35:35;98747.16;;;7.94;48.91
63447;BME280;49577;49.872;6.190;2023-02-25T14:38:14;98751.59;;;7.84;49.14
63447;BME280;49577;49.872;6.190;2023-02-25T14:40:55;98748.52;;;7.78;49.34
63447;BME280;49577;49.872;6.190;2023-02-25T14:43:35;98756.09;;;7.74;49.79
63447;BME280;49577;49.872;6.190;2023-02-25T14:46:40;98757.41;;;7.70;49.96
63447;BME280;49577;49.872;6.190;2023-02-25T14:49:34;98761.63;;;7.58;50.14
63447;BME280;49577;49.872;6.190;2023-02-25T15:09:30;98808.05;;;6.31;54.72
63447;BME280;49577;49.872;6.190;2023-02-25T15:20:30;98816.13;;;5.36;58.28
63447;BME280;49577;49.872;6.190;2023-02-25T15:33:40;98819.62;;;5.26;59.07
63447;BME280;49577;49.872;6.190;2023-02-25T15:46:39;98829.91;;;5.31;59.70
63447;BME280;49577;49.872;6.190;2023-02-25T15:49:33;98829.23;;;5.24;59.61
63447;BME280;49577;49.872;6.190;2023-02-25T15:52:00;98832.31;;;5.08;59.43
63447;BME280;49577;49.872;6.190;2023-02-25T15:57:31;98838.45;;;4.87;58.85
63447;BME280;49577;49.872;6.190;2023-02-25T15:59:53;98832.70;;;4.78;58.33
63447;BME280;49577;49.872;6.190;2023-02-25T16:04:59;98831.27;;;4.55;56.55
63447;BME280;49577;49.872;6.190;2023-02-25T16:07:33;98825.52;;;4.42;56.96
63447;BME280;49577;49.872;6.190;2023-02-25T16:10:04;98825.53;;;4.35;56.82
63447;BME280;49577;49.872;6.190;2023-02-25T16:12:31;98830.38;;;4.28;57.44
63447;BME280;49577;49.872;6.190;2023-02-25T16:14:57;98842.70;;;4.19;57.80
63447;BME280;49577;49.872;6.190;2023-02-25T16:17:33;98852.59;;;4.12;57.61
63447;BME280;49577;49.872;6.190;2023-02-25T16:20:30;98854.09;;;4.06;58.06
63447;BME280;49577;49.872;6.190;2023-02-25T16:22:59;98859.69;;;4.01;57.98
63447;BME280;49577;49.872;6.190;2023-02-25T16:25:37;98864.90;;;3.97;58.23
63447;BME280;49577;49.872;6.190;2023-02-25T16:28:28;98863.71;;;3.93;57.82
63447;BME280;49577;49.872;6.190;2023-02-25T16:31:05;98862.48;;;3.90;58.12
63447;BME280;49577;49.872;6.190;2023-02-25T16:33:48;98869.70;;;3.87;58.53
63447;BME280;49577;49.872;6.190;2023-02-25T16:39:20;98878.98;;;3.73;59.66
63447;BME280;49577;49.872;6.190;2023-02-25T16:41:48;98887.38;;;3.70;60.32
63447;BME280;49577;49.872;6.190;2023-02-25T16:44:22;98887.23;;;3.70;60.07
63447;BME280;49577;49.872;6.190;2023-02-25T16:46:52;98888.61;;;3.66;59.69
63447;BME280;49577;49.872;6.190;2023-02-25T16:49:27;98896.79;;;3.61;59.29
63447;BME280;49577;49.872;6.190;2023-02-25T16:51:55;98901.75;;;3.55;59.51
63447;BME280;49577;49.872;6.190;2023-02-25T16:54:31;98901.03;;;3.48;59.59
63447;BME280;49577;49.872;6.190;2023-02-25T16:57:00;98910.22;;;3.39;59.84
63447;BME280;49577;49.872;6.190;2023-02-25T16:59:30;98911.67;;;3.30;60.28